Time;durP1;ratioP1;P1;durP2;ratioP2;P2;SDS_P1;SDS_P2;PMS_P1;PMS_P2;Temp;Humidity;BMP_temperature;BMP_pressure;BME280_temperature;BME280_humidity;BME280_pressure;Samples;Min_cycle;Max_cycle;Signal;HPM_P1;HPM_P2
2022/06/20 00:00:41;;;;;;;6.17;2.43;;;21.50;99.90;;;;;;5094209;28;20192;-68
2022/06/20 00:03:17;;;;;;;4.33;2.10;;;21.50;99.90;;;;;;5094217;28;20307;-68
2022/06/20 00:05:44;;;;;;;4.80;2.20;;;21.50;99.90;;;;;;5094493;28;20638;-69
2022/06/20 00:08:12;;;;;;;4.33;2.37;;;21.40;99.90;;;;;;5093863;28;20208;-68
2022/06/20 00:10:42;;;;;;;3.50;2.00;;;21.40;99.90;;;;;;5093951;28;20242;-69
2022/06/20 00:13:18;;;;;;;2.67;2.07;;;21.40;99.90;;;;;;5093184;28;20813;-68
2022/06/20 00:15:48;;;;;;;4.33;2.17;;;21.40;99.90;;;;;;5094085;28;20253;-68
2022/06/20 00:18:16;;;;;;;4.17;2.27;;;21.30;99.90;;;;;;5093742;28;20267;-69
2022/06/20 00:20:43;;;;;;;3.47;2.00;;;21.30;99.90;;;;;;5093970;28;20207;-69
2022/06/20 00:23:10;;;;;;;4.00;1.93;;;21.30;99.90;;;;;;5093468;28;20206;-69
2022/06/20 00:25:38;;;;;;;4.87;2.17;;;21.30;99.90;;;;;;5093949;28;20296;-69
2022/06/20 00:28:06;;;;;;;2.93;1.83;;;21.30;99.90;;;;;;5093687;28;20297;-68
2022/06/20 00:30:35;;;;;;;2.60;2.00;;;21.20;99.90;;;;;;5093691;28;20283;-69
2022/06/20 00:33:02;;;;;;;3.13;2.10;;;21.20;99.90;;;;;;5093290;28;20307;-68
2022/06/20 00:35:29;;;;;;;3.13;1.93;;;21.20;99.90;;;;;;5092956;28;20294;-69
2022/06/20 00:37:58;;;;;;;3.80;1.97;;;21.20;99.90;;;;;;5093619;28;20312;-68
2022/06/20 00:40:29;;;;;;;2.20;1.90;;;21.10;99.90;;;;;;5090841;28;20300;-69
2022/06/20 00:42:56;;;;;;;5.30;2.07;;;21.10;99.90;;;;;;5093713;28;20225;-68
2022/06/20 00:45:25;;;;;;;3.00;2.00;;;21.10;99.90;;;;;;5091208;28;20204;-69
2022/06/20 00:48:01;;;;;;;2.87;1.80;;;21.10;99.90;;;;;;5093743;28;20760;-70
2022/06/20 00:50:30;;;;;;;3.17;2.03;;;21.00;99.90;;;;;;5091951;28;20840;-68
2022/06/20 00:53:03;;;;;;;4.40;2.00;;;21.00;99.90;;;;;;5073331;28;20202;-71
2022/06/20 00:55:34;;;;;;;2.30;1.83;;;21.00;99.90;;;;;;5073437;28;20283;-68
2022/06/20 00:58:11;;;;;;;2.93;2.20;;;20.90;99.90;;;;;;5073228;28;20257;-68
2022/06/20 01:00:39;;;;;;;3.80;2.00;;;20.90;99.90;;;;;;5079294;28;20292;-69
2022/06/20 01:03:13;;;;;;;4.17;1.80;;;20.90;99.90;;;;;;5094185;28;20232;-67
2022/06/20 01:05:46;;;;;;;3.10;2.10;;;20.90;99.90;;;;;;5095304;28;20216;-71
2022/06/20 01:08:17;;;;;;;4.47;1.97;;;20.90;99.90;;;;;;5093424;28;20833;-68
2022/06/20 01:10:48;;;;;;;2.63;1.90;;;20.90;99.90;;;;;;5092669;28;20257;-69
2022/06/20 01:13:19;;;;;;;4.00;1.90;;;20.80;99.90;;;;;;5093055;28;20227;-67
2022/06/20 01:15:48;;;;;;;1.67;1.57;;;20.80;99.90;;;;;;5093133;28;20192;-69
2022/06/20 01:18:20;;;;;;;2.33;2.00;;;20.80;99.90;;;;;;5092731;28;20769;-69
2022/06/20 01:20:49;;;;;;;3.20;2.00;;;20.80;99.90;;;;;;5093035;28;20211;-69
2022/06/20 01:23:31;;;;;;;2.13;1.80;;;20.70;99.90;;;;;;5095888;28;20228;-69
2022/06/20 01:26:22;;;;;;;2.50;1.90;;;20.80;99.90;;;;;;5093358;28;20201;-68
2022/06/20 01:28:54;;;;;;;2.93;2.00;;;20.80;99.90;;;;;;5091720;28;20235;-69
2022/06/20 01:31:23;;;;;;;3.17;1.90;;;20.70;99.90;;;;;;5096063;28;20656;-72
2022/06/20 01:33:50;;;;;;;4.63;1.90;;;20.70;99.90;;;;;;5094863;28;20237;-70
2022/06/20 01:39:06;;;;;;;3.50;1.97;;;20.70;99.90;;;;;;5091998;28;20207;-69
2022/06/20 01:44:21;;;;;;;2.03;1.83;;;20.60;99.90;;;;;;5092240;28;20214;-68
2022/06/20 01:46:48;;;;;;;3.50;2.10;;;20.60;99.90;;;;;;5091896;28;20723;-70
2022/06/20 01:49:20;;;;;;;2.27;1.80;;;20.60;99.90;;;;;;5096284;28;20201;-70
2022/06/20 01:51:53;;;;;;;2.80;2.00;;;20.50;99.90;;;;;;5092557;28;20544;-69
2022/06/20 01:54:22;;;;;;;3.57;2.10;;;20.50;99.90;;;;;;5092290;28;20202;-69
2022/06/20 01:56:51;;;;;;;4.23;2.10;;;20.50;99.90;;;;;;5092656;28;20205;-69
2022/06/20 01:59:24;;;;;;;3.57;2.03;;;20.50;99.90;;;;;;5092357;28;20289;-69
2022/06/20 02:01:52;;;;;;;3.70;2.60;;;20.50;99.90;;;;;;5092307;28;20281;-68
2022/06/20 02:04:23;;;;;;;2.63;2.07;;;20.50;99.90;;;;;;5092444;28;20296;-72
2022/06/20 02:06:52;;;;;;;3.80;2.30;;;20.40;99.90;;;;;;5093456;28;20238;-70
2022/06/20 02:09:19;;;;;;;3.27;2.33;;;20.40;99.90;;;;;;5092437;28;20193;-69
2022/06/20 02:11:48;;;;;;;3.10;2.00;;;20.40;99.90;;;;;;5092194;28;20748;-69
2022/06/20 02:14:18;;;;;;;3.60;1.83;;;20.40;99.90;;;;;;5091567;28;20298;-69
2022/06/20 02:16:53;;;;;;;3.27;2.00;;;20.40;99.90;;;;;;5092146;28;20275;-69
2022/06/20 02:19:25;;;;;;;3.90;1.87;;;20.30;99.90;;;;;;5092515;28;20239;-71
2022/06/20 02:21:55;;;;;;;3.50;1.73;;;20.30;99.90;;;;;;5072032;28;20196;-69
2022/06/20 02:24:24;;;;;;;3.17;1.90;;;20.30;99.90;;;;;;5071995;28;20206;-69
2022/06/20 02:26:55;;;;;;;4.93;2.13;;;20.30;99.90;;;;;;5075547;28;20244;-69
2022/06/20 02:29:24;;;;;;;3.73;2.53;;;20.30;99.90;;;;;;5091499;28;20236;-68
2022/06/20 02:31:55;;;;;;;2.63;1.77;;;20.30;99.90;;;;;;5091193;28;20250;-69
2022/06/20 02:34:25;;;;;;;4.03;1.90;;;20.30;99.90;;;;;;5091696;28;20648;-69
2022/06/20 02:36:54;;;;;;;2.63;1.90;;;20.30;99.90;;;;;;5092839;28;20259;-70
2022/06/20 02:39:22;;;;;;;2.13;1.93;;;20.30;99.90;;;;;;5096103;28;20237;-69
2022/06/20 02:41:57;;;;;;;2.97;2.23;;;20.40;99.90;;;;;;5095736;28;20300;-69
2022/06/20 02:44:25;;;;;;;2.53;2.10;;;20.40;99.90;;;;;;5095533;28;20203;-70
2022/06/20 02:46:54;;;;;;;2.20;1.97;;;20.50;99.90;;;;;;5095365;28;20214;-69
2022/06/20 02:49:24;;;;;;;2.20;2.00;;;20.50;99.90;;;;;;5095882;28;20720;-70
2022/06/20 02:51:53;;;;;;;3.30;2.10;;;20.50;99.90;;;;;;5095716;28;20292;-69
2022/06/20 02:54:24;;;;;;;2.00;1.80;;;20.50;99.90;;;;;;5095422;28;20237;-68
2022/06/20 02:57:01;;;;;;;4.47;2.10;;;20.60;99.90;;;;;;5095529;28;20272;-69
2022/06/20 02:59:30;;;;;;;2.90;2.20;;;20.60;99.90;;;;;;5095343;28;20278;-70
2022/06/20 03:02:04;;;;;;;2.67;2.37;;;20.60;99.90;;;;;;5095272;28;20221;-70
2022/06/20 03:04:35;;;;;;;2.93;2.13;;;20.70;99.90;;;;;;5095790;28;20231;-70
2022/06/20 03:07:05;;;;;;;3.17;2.03;;;20.70;99.90;;;;;;5095399;28;20662;-70
2022/06/20 03:09:35;;;;;;;2.60;2.00;;;20.80;99.90;;;;;;5095451;28;20181;-69
2022/06/20 03:12:05;;;;;;;2.63;2.10;;;20.80;99.90;;;;;;5095944;28;20697;-69
2022/06/20 03:14:36;;;;;;;2.83;1.80;;;20.90;99.90;;;;;;5095878;28;20288;-70
2022/06/20 03:17:05;;;;;;;3.03;2.20;;;21.00;99.90;;;;;;5095199;28;20192;-69
2022/06/20 03:19:34;;;;;;;2.20;2.00;;;21.00;99.90;;;;;;5095761;28;20671;-69
2022/06/20 03:22:05;;;;;;;2.30;2.00;;;21.10;99.90;;;;;;5095696;28;20204;-70
2022/06/20 03:24:32;;;;;;;3.53;2.20;;;21.20;99.90;;;;;;5095920;28;20701;-70
2022/06/20 03:27:02;;;;;;;3.37;1.90;;;21.20;99.90;;;;;;5091009;28;20236;-69
2022/06/20 03:29:29;;;;;;;3.63;1.87;;;21.20;99.90;;;;;;5090941;28;20644;-69
2022/06/20 03:31:56;;;;;;;3.50;2.00;;;21.30;99.90;;;;;;5093116;28;20204;-69
2022/06/20 03:34:24;;;;;;;2.10;1.90;;;21.30;99.90;;;;;;5093243;28;20291;-68
2022/06/20 03:36:52;;;;;;;4.00;2.20;;;21.30;99.90;;;;;;5095066;28;20208;-68
2022/06/20 03:39:20;;;;;;;3.90;2.20;;;21.40;99.90;;;;;;5094085;28;20222;-69
2022/06/20 03:41:48;;;;;;;2.70;2.30;;;21.40;99.90;;;;;;5094798;28;20617;-69
2022/06/20 03:44:19;;;;;;;2.23;2.00;;;21.40;99.90;;;;;;5094539;28;20208;-70
2022/06/20 03:46:53;;;;;;;5.77;2.10;;;21.50;99.90;;;;;;5094785;28;20197;-68
2022/06/20 03:49:25;;;;;;;3.13;2.00;;;21.60;99.90;;;;;;5093395;28;20240;-70
2022/06/20 03:52:00;;;;;;;3.23;2.10;;;21.60;99.90;;;;;;5094434;28;20287;-70
2022/06/20 03:54:32;;;;;;;3.50;2.10;;;21.70;99.90;;;;;;5094889;28;20632;-69
2022/06/20 03:57:06;;;;;;;5.07;2.20;;;21.70;99.90;;;;;;5095113;28;20238;-71
2022/06/20 03:59:40;;;;;;;3.00;1.87;;;21.80;99.90;;;;;;5094749;28;20242;-69
2022/06/20 04:02:13;;;;;;;2.83;1.90;;;21.90;99.90;;;;;;5093923;28;20196;-69
2022/06/20 04:04:49;;;;;;;4.20;2.00;;;21.90;99.90;;;;;;5094518;28;20244;-70
2022/06/20 04:07:21;;;;;;;2.43;1.80;;;22.00;99.90;;;;;;5094701;28;20188;-70
2022/06/20 04:12:42;;;;;;;2.50;2.00;;;22.10;99.80;;;;;;5094336;28;20229;-71
2022/06/20 04:15:14;;;;;;;2.10;1.90;;;22.20;99.70;;;;;;5094478;28;20184;-70
2022/06/20 04:20:38;;;;;;;4.57;2.10;;;22.40;99.60;;;;;;5092492;28;20340;-71
2022/06/20 04:23:22;;;;;;;2.83;1.90;;;22.40;99.30;;;;;;5093947;28;20206;-70
2022/06/20 04:25:55;;;;;;;2.87;2.00;;;22.40;99.00;;;;;;5093294;28;20550;-69
2022/06/20 04:28:28;;;;;;;2.53;1.90;;;22.50;98.90;;;;;;5092836;28;20198;-70
2022/06/20 04:30:59;;;;;;;3.40;2.03;;;22.60;99.00;;;;;;5094598;28;20190;-68
2022/06/20 04:33:31;;;;;;;3.37;2.10;;;22.70;98.90;;;;;;5094305;28;20670;-71
2022/06/20 04:36:11;;;;;;;4.53;2.13;;;22.80;98.90;;;;;;5092888;28;20271;-70
2022/06/20 04:38:45;;;;;;;2.50;2.00;;;22.90;99.00;;;;;;5090714;28;20226;-70
2022/06/20 04:41:17;;;;;;;3.10;1.90;;;22.90;98.90;;;;;;5094393;28;20647;-71
2022/06/20 04:43:49;;;;;;;4.43;2.93;;;23.00;98.80;;;;;;5094224;28;20588;-71
2022/06/20 04:46:22;;;;;;;2.63;2.27;;;23.10;98.70;;;;;;5092824;28;20285;-69
2022/06/20 04:48:50;;;;;;;4.67;3.00;;;23.10;98.90;;;;;;5094021;28;20198;-70
2022/06/20 04:51:22;;;;;;;2.87;2.30;;;23.20;98.80;;;;;;5091317;28;20238;-73
2022/06/20 04:53:50;;;;;;;4.70;2.50;;;23.30;98.60;;;;;;5089913;28;20221;-70
2022/06/20 04:56:26;;;;;;;4.17;2.20;;;23.40;98.40;;;;;;5093238;28;20232;-69
2022/06/20 04:58:57;;;;;;;3.80;2.50;;;23.50;98.50;;;;;;5093293;28;20283;-72
2022/06/20 05:01:25;;;;;;;3.50;2.40;;;23.60;98.60;;;;;;5092953;28;20279;-70
2022/06/20 05:03:57;;;;;;;5.50;3.07;;;23.60;99.00;;;;;;5092311;28;20292;-71
2022/06/20 05:06:28;;;;;;;5.50;2.80;;;23.70;98.60;;;;;;5093392;28;20189;-72
2022/06/20 05:09:00;;;;;;;4.47;2.53;;;23.80;98.30;;;;;;5093640;28;20222;-71
2022/06/20 05:11:31;;;;;;;4.13;2.77;;;23.90;98.30;;;;;;5093663;28;20244;-71
2022/06/20 05:14:07;;;;;;;3.23;2.80;;;24.00;98.00;;;;;;5093547;28;20247;-71
2022/06/20 05:16:38;;;;;;;7.03;3.40;;;24.10;98.10;;;;;;5093235;28;20244;-72
2022/06/20 05:19:09;;;;;;;2.40;2.20;;;24.20;97.90;;;;;;5093732;28;20280;-70
2022/06/20 05:21:42;;;;;;;2.13;1.70;;;24.20;97.80;;;;;;5093264;28;20512;-73
2022/06/20 05:24:13;;;;;;;3.80;2.40;;;24.30;97.60;;;;;;5095459;28;20246;-74
2022/06/20 05:26:45;;;;;;;3.70;2.20;;;24.30;97.60;;;;;;5095751;28;20285;-71
2022/06/20 05:29:16;;;;;;;2.60;1.90;;;24.40;97.60;;;;;;5093474;28;20201;-71
2022/06/20 05:31:49;;;;;;;5.33;2.30;;;24.50;97.50;;;;;;5094240;28;20197;-72
2022/06/20 05:34:22;;;;;;;4.20;2.10;;;24.60;97.20;;;;;;5093204;28;20289;-71
2022/06/20 05:36:56;;;;;;;2.33;2.00;;;24.70;96.80;;;;;;5093265;28;20276;-71
2022/06/20 05:39:27;;;;;;;2.70;1.77;;;24.80;96.40;;;;;;5093212;28;20302;-72
2022/06/20 05:41:54;;;;;;;2.27;1.80;;;24.80;95.80;;;;;;5092783;28;20192;-71
2022/06/20 05:44:21;;;;;;;2.10;1.77;;;24.90;95.40;;;;;;5092740;28;20207;-72
2022/06/20 05:46:52;;;;;;;2.87;1.87;;;25.00;95.30;;;;;;5088987;28;20203;-71
2022/06/20 05:49:25;;;;;;;2.73;2.17;;;25.00;95.30;;;;;;5076666;28;20282;-71
2022/06/20 05:51:56;;;;;;;1.73;1.60;;;25.10;95.20;;;;;;5085130;28;20549;-71
2022/06/20 05:54:26;;;;;;;2.77;2.03;;;25.20;94.20;;;;;;5088188;28;20202;-71
2022/06/20 05:56:58;;;;;;;2.63;1.80;;;25.20;94.30;;;;;;5093415;28;20355;-71
2022/06/20 05:59:41;;;;;;;4.10;1.90;;;25.30;93.60;;;;;;5092681;28;20255;-70
2022/06/20 06:02:22;;;;;;;2.37;1.70;;;25.40;93.50;;;;;;5092411;28;20295;-71
2022/06/20 06:04:55;;;;;;;2.00;1.80;;;25.50;93.10;;;;;;5093517;28;20243;-71
2022/06/20 06:07:28;;;;;;;2.80;2.00;;;25.50;93.00;;;;;;5093076;28;20255;-71
2022/06/20 06:09:59;;;;;;;2.13;1.70;;;25.60;92.90;;;;;;5089592;28;20209;-72
2022/06/20 06:12:32;;;;;;;3.40;1.77;;;25.70;92.90;;;;;;5097121;28;20203;-72
2022/06/20 06:15:07;;;;;;;3.33;2.27;;;25.80;92.40;;;;;;5093231;28;20191;-71
2022/06/20 08:37:51;;;;;;;3.92;1.55;;;27.70;84.70;;;;;;5181233;27;20981;-71
2022/06/20 08:40:33;;;;;;;16.48;2.17;;;28.60;83.90;;;;;;5150300;27;20189;-72
2022/06/20 08:43:45;;;;;;;2.78;1.40;;;28.70;84.20;;;;;;5150623;27;20569;-71
2022/06/20 08:46:41;;;;;;;2.85;1.60;;;28.80;82.50;;;;;;5110886;27;20293;-71
2022/06/20 08:49:50;;;;;;;1.88;1.30;;;28.90;81.70;;;;;;5149971;27;20199;-72
2022/06/20 08:53:07;;;;;;;3.40;1.60;;;28.90;81.80;;;;;;5149524;27;20212;-72
2022/06/20 08:56:02;;;;;;;3.28;1.50;;;28.90;83.20;;;;;;5148612;27;20265;-71
2022/06/20 08:58:42;;;;;;;2.92;1.50;;;28.90;82.70;;;;;;5105457;28;20214;-71
2022/06/20 09:01:17;;;;;;;2.72;1.75;;;29.00;82.60;;;;;;5109025;27;20190;-71
2022/06/20 09:04:21;;;;;;;7.82;2.85;;;29.00;82.20;;;;;;5108477;28;20251;-71
2022/06/20 09:07:15;;;;;;;3.08;1.40;;;29.10;82.60;;;;;;5108526;28;20213;-73
2022/06/20 09:10:14;;;;;;;2.47;1.50;;;29.10;82.30;;;;;;5108986;28;20241;-72
2022/06/20 09:13:14;;;;;;;2.10;1.40;;;29.20;81.70;;;;;;5119676;27;20199;-74
2022/06/20 09:15:50;;;;;;;3.03;1.70;;;29.20;81.10;;;;;;5129060;28;20786;-72
2022/06/20 09:18:40;;;;;;;2.33;1.40;;;29.20;81.30;;;;;;5127999;27;20232;-72
2022/06/20 09:21:16;;;;;;;2.55;1.50;;;29.30;81.60;;;;;;5130557;27;20214;-71
2022/06/20 09:24:01;;;;;;;3.88;1.58;;;29.30;80.50;;;;;;5128574;28;20280;-68
2022/06/20 09:26:35;;;;;;;5.43;1.60;;;29.40;80.50;;;;;;5128263;27;20218;-67
2022/06/20 09:29:23;;;;;;;2.63;1.40;;;29.40;80.30;;;;;;5128301;27;20233;-66
2022/06/20 09:32:17;;;;;;;1.45;1.33;;;29.50;80.40;;;;;;5128141;27;20210;-67
2022/06/20 09:35:07;;;;;;;3.70;1.63;;;29.50;80.40;;;;;;5128470;27;20206;-67
2022/06/20 09:38:14;;;;;;;3.30;1.55;;;29.60;79.50;;;;;;5120365;27;20252;-68
2022/06/20 09:40:45;;;;;;;3.70;1.50;;;29.60;80.60;;;;;;5094189;28;20275;-66
2022/06/20 09:43:23;;;;;;;3.42;1.60;;;29.60;79.20;;;;;;5094042;28;20204;-66
2022/06/20 09:45:59;;;;;;;5.10;1.67;;;29.60;80.00;;;;;;5094000;28;20226;-65
2022/06/20 09:48:35;;;;;;;4.00;1.90;;;29.60;78.60;;;;;;5099942;27;20281;-66
2022/06/20 09:51:09;;;;;;;2.90;1.40;;;29.60;78.30;;;;;;5125890;27;20198;-66
2022/06/20 09:53:50;;;;;;;2.92;1.45;;;29.60;78.10;;;;;;5123732;27;20281;-67
2022/06/20 09:56:23;;;;;;;3.33;1.35;;;29.60;77.60;;;;;;5134521;27;20258;-66
2022/06/20 09:59:02;;;;;;;1.77;1.40;;;29.60;77.50;;;;;;5130738;27;20226;-67
2022/06/20 10:01:35;;;;;;;1.70;1.30;;;29.60;77.00;;;;;;5127581;27;20194;-72
2022/06/20 10:04:10;;;;;;;1.50;1.35;;;29.60;77.40;;;;;;5116100;28;20636;-72
2022/06/20 10:06:48;;;;;;;2.17;1.42;;;29.60;77.30;;;;;;5117753;27;20281;-69
2022/06/20 10:09:21;;;;;;;1.75;1.35;;;29.70;79.50;;;;;;5111186;28;20274;-71
2022/06/20 10:11:59;;;;;;;2.03;1.40;;;29.70;78.00;;;;;;5113962;27;20274;-73
2022/06/20 10:14:35;;;;;;;2.97;1.90;;;29.80;78.70;;;;;;5111750;28;20258;-71
2022/06/20 10:17:14;;;;;;;2.63;1.55;;;29.80;77.90;;;;;;5113161;28;20218;-71
2022/06/20 10:19:48;;;;;;;4.95;1.45;;;29.90;77.80;;;;;;5122103;27;20281;-70
2022/06/20 10:22:23;;;;;;;2.53;1.30;;;29.90;78.10;;;;;;5114436;27;20206;-70
2022/06/20 10:25:28;;;;;;;2.13;1.63;;;29.90;77.60;;;;;;5124864;27;20216;-72
2022/06/20 10:28:01;;;;;;;3.17;1.38;;;30.00;76.50;;;;;;5092429;28;20287;-71
2022/06/20 10:30:42;;;;;;;2.35;1.48;;;30.00;76.30;;;;;;5093264;28;20370;-70
2022/06/20 10:33:32;;;;;;;2.70;1.55;;;30.10;76.60;;;;;;5110914;28;20274;-72
2022/06/20 10:36:14;;;;;;;4.72;1.50;;;30.10;75.90;;;;;;5112259;27;20285;-72
2022/06/20 10:38:44;;;;;;;3.65;1.30;;;30.20;75.50;;;;;;5110471;27;20195;-70
2022/06/20 10:41:21;;;;;;;2.53;1.20;;;30.20;75.40;;;;;;5129198;27;20301;-71
2022/06/20 10:43:50;;;;;;;1.30;1.20;;;30.20;74.50;;;;;;5103994;28;20283;-71
2022/06/20 10:46:26;;;;;;;2.28;1.40;;;30.30;74.00;;;;;;5112047;28;20303;-71
2022/06/20 10:49:12;;;;;;;2.92;1.58;;;30.40;75.50;;;;;;5112177;28;20546;-71
2022/06/20 10:51:48;;;;;;;2.38;1.30;;;30.50;75.00;;;;;;5112714;28;20618;-71
2022/06/20 10:54:31;;;;;;;2.60;1.40;;;30.50;73.60;;;;;;5113067;28;20592;-71
2022/06/20 10:57:09;;;;;;;3.22;1.23;;;30.60;73.60;;;;;;5112524;28;20199;-70
2022/06/20 10:59:47;;;;;;;4.68;1.20;;;30.80;73.60;;;;;;5112927;28;20229;-71
2022/06/20 11:02:35;;;;;;;2.58;1.25;;;30.80;72.30;;;;;;5113075;28;20615;-71
2022/06/20 11:05:16;;;;;;;3.40;1.30;;;30.80;73.00;;;;;;5113099;28;20278;-71
2022/06/20 11:07:49;;;;;;;3.50;1.33;;;30.90;73.30;;;;;;5112254;27;20275;-70
2022/06/20 11:10:32;;;;;;;2.15;1.45;;;30.90;72.30;;;;;;5112447;28;20229;-70
2022/06/20 11:13:09;;;;;;;2.13;1.50;;;31.00;73.30;;;;;;5109311;27;20199;-71
2022/06/20 11:15:45;;;;;;;5.75;1.58;;;31.10;72.50;;;;;;5111936;27;20199;-70
2022/06/20 11:18:30;;;;;;;2.42;1.35;;;31.10;71.80;;;;;;5115393;27;20210;-71
2022/06/20 11:21:03;;;;;;;1.27;1.10;;;31.10;71.90;;;;;;5110576;27;21024;-72
2022/06/20 11:23:36;;;;;;;3.20;1.20;;;31.20;72.40;;;;;;5122244;27;20202;-72
2022/06/20 11:26:11;;;;;;;1.88;1.40;;;31.10;71.60;;;;;;5116175;27;20219;-71
2022/06/20 11:28:57;;;;;;;3.95;1.50;;;31.10;72.10;;;;;;5112453;28;20701;-70
2022/06/20 11:31:38;;;;;;;1.30;1.20;;;31.10;72.50;;;;;;5112375;28;20249;-71
2022/06/20 11:34:35;;;;;;;1.48;1.30;;;31.10;71.10;;;;;;5111992;28;20278;-70
2022/06/20 11:37:16;;;;;;;3.55;1.38;;;31.00;71.00;;;;;;5111008;28;20314;-72
2022/06/20 11:39:56;;;;;;;3.42;1.23;;;31.10;71.50;;;;;;5101220;28;20601;-72
2022/06/20 11:42:45;;;;;;;4.40;1.45;;;31.10;70.80;;;;;;5111261;28;20218;-71
2022/06/20 11:45:34;;;;;;;3.05;1.45;;;31.10;71.20;;;;;;5109161;27;20205;-71
2022/06/20 11:48:14;;;;;;;3.15;1.30;;;31.10;71.40;;;;;;5111958;28;20246;-72
2022/06/20 11:50:48;;;;;;;3.63;1.52;;;31.10;70.30;;;;;;5110899;28;20603;-71
2022/06/20 11:53:29;;;;;;;1.55;1.45;;;31.10;70.00;;;;;;5114819;27;20263;-70
2022/06/20 11:56:02;;;;;;;3.15;1.10;;;31.10;70.50;;;;;;5112529;27;20308;-71
2022/06/20 11:58:35;;;;;;;2.38;1.40;;;31.10;70.30;;;;;;5111787;28;20278;-71
2022/06/20 12:01:10;;;;;;;1.42;1.30;;;31.10;70.70;;;;;;5111607;28;20191;-70
2022/06/20 12:03:42;;;;;;;2.22;1.42;;;31.10;70.10;;;;;;5111896;28;20187;-71
2022/06/20 12:06:17;;;;;;;4.15;1.33;;;31.10;71.90;;;;;;5111949;28;20191;-71
2022/06/20 12:08:56;;;;;;;3.80;1.30;;;31.10;71.50;;;;;;5111960;28;20396;-70
2022/06/20 12:11:46;;;;;;;1.33;1.13;;;31.10;71.00;;;;;;5112134;28;20274;-71
2022/06/20 12:14:27;;;;;;;1.80;1.10;;;31.10;70.30;;;;;;5111998;28;20191;-72
2022/06/20 12:17:08;;;;;;;1.75;1.20;;;31.10;69.50;;;;;;5111634;28;20207;-71
2022/06/20 12:25:35;;;;;;;1.60;1.25;;;31.20;70.30;;;;;;5111618;28;20190;-70
2022/06/20 12:28:03;;;;;;;1.95;1.35;;;31.20;69.70;;;;;;5111397;28;20210;-73
2022/06/20 12:30:32;;;;;;;3.35;1.40;;;31.20;70.80;;;;;;5111319;28;20207;-71
2022/06/20 12:33:01;;;;;;;2.50;1.30;;;31.20;70.00;;;;;;5111144;28;20298;-73
2022/06/20 12:35:36;;;;;;;2.97;1.30;;;31.20;70.20;;;;;;5111192;28;20264;-71
2022/06/20 12:38:12;;;;;;;2.15;1.30;;;31.20;69.80;;;;;;5111439;28;20264;-71
2022/06/20 12:40:45;;;;;;;2.20;1.50;;;31.20;69.80;;;;;;5111547;28;20713;-71
2022/06/20 12:43:16;;;;;;;4.47;1.77;;;31.20;70.10;;;;;;5111433;28;20282;-71
2022/06/20 12:46:06;;;;;;;3.05;1.55;;;31.20;69.40;;;;;;5111226;28;20195;-72
2022/06/20 12:48:58;;;;;;;1.85;1.20;;;31.20;70.10;;;;;;5111541;28;20295;-72
2022/06/20 12:51:35;;;;;;;3.08;1.75;;;31.10;69.20;;;;;;5113886;28;20715;-72
2022/06/20 12:54:18;;;;;;;3.03;1.60;;;31.10;69.20;;;;;;5120667;28;20889;-71
2022/06/20 12:56:57;;;;;;;2.25;1.40;;;31.20;70.70;;;;;;5107681;28;20206;-70
2022/06/20 13:00:12;;;;;;;2.30;1.40;;;31.10;69.00;;;;;;5090840;28;20202;-71
2022/06/20 13:03:10;;;;;;;1.77;1.50;;;31.10;70.40;;;;;;5108609;28;20203;-71
2022/06/20 13:06:05;;;;;;;1.75;1.20;;;31.10;67.70;;;;;;5074543;28;20290;-70
2022/06/20 13:08:48;;;;;;;1.92;1.40;;;31.10;69.20;;;;;;5101392;28;20229;-69
2022/06/20 13:11:28;;;;;;;1.75;1.40;;;31.20;69.00;;;;;;5090815;28;20271;-70
2022/06/20 13:14:37;;;;;;;1.30;1.17;;;31.20;69.00;;;;;;5108312;27;20233;-70
2022/06/20 13:17:26;;;;;;;3.65;1.30;;;31.10;69.20;;;;;;5091224;27;20199;-70
2022/06/20 13:20:18;;;;;;;1.42;1.30;;;31.20;69.60;;;;;;5107612;27;20780;-70
2022/06/20 13:22:54;;;;;;;1.40;1.30;;;31.20;68.90;;;;;;5119561;27;20516;-70
2022/06/20 13:25:35;;;;;;;2.53;1.30;;;31.20;68.70;;;;;;5113852;27;20199;-71
2022/06/20 13:28:13;;;;;;;1.67;1.25;;;31.20;68.20;;;;;;5101490;28;20215;-71
2022/06/20 13:30:55;;;;;;;3.80;1.55;;;31.20;68.70;;;;;;5122637;27;20202;-71
2022/06/20 13:33:31;;;;;;;1.92;1.25;;;31.20;68.60;;;;;;5134963;27;20281;-68
2022/06/20 13:36:02;;;;;;;1.20;1.10;;;31.20;68.30;;;;;;5134370;27;20229;-70
2022/06/20 13:38:40;;;;;;;1.65;1.20;;;31.30;69.40;;;;;;5135001;27;20647;-71
2022/06/20 13:41:14;;;;;;;2.75;1.30;;;31.30;69.00;;;;;;5121124;27;20270;-70
2022/06/20 13:43:53;;;;;;;1.38;1.27;;;31.30;69.20;;;;;;5114236;27;20293;-70
2022/06/20 13:46:25;;;;;;;3.97;1.20;;;31.30;69.50;;;;;;5117625;27;20187;-70
2022/06/20 13:49:00;;;;;;;1.52;1.40;;;31.30;68.20;;;;;;5110527;27;20282;-71
2022/06/20 13:51:34;;;;;;;1.20;1.10;;;31.30;67.90;;;;;;5115615;27;20668;-70
2022/06/20 13:54:13;;;;;;;2.08;1.13;;;31.30;66.80;;;;;;5111652;28;20204;-71
2022/06/20 13:56:52;;;;;;;3.20;1.40;;;31.30;66.90;;;;;;5109128;27;20611;-71
2022/06/20 13:59:26;;;;;;;1.80;1.30;;;31.20;67.40;;;;;;5114050;28;20187;-70
2022/06/20 14:01:59;;;;;;;1.58;1.20;;;31.30;66.90;;;;;;5112838;27;20429;-75
2022/06/20 14:04:28;;;;;;;2.97;1.13;;;31.30;68.40;;;;;;5103393;28;20206;-76
2022/06/20 14:07:00;;;;;;;2.47;1.30;;;31.40;68.30;;;;;;5114363;28;20258;-71
2022/06/20 14:09:30;;;;;;;2.50;1.40;;;31.30;68.50;;;;;;5114039;28;20685;-72
2022/06/20 14:12:00;;;;;;;1.40;1.30;;;31.30;68.30;;;;;;5114010;28;20207;-74
2022/06/20 14:14:33;;;;;;;2.60;1.15;;;31.30;68.20;;;;;;5113703;28;20199;-72
2022/06/20 14:17:04;;;;;;;4.82;1.33;;;31.30;68.80;;;;;;5112301;28;20290;-72
2022/06/20 14:19:36;;;;;;;4.72;3.17;;;31.30;69.20;;;;;;5111607;27;20641;-70
2022/06/20 14:22:14;;;;;;;3.13;1.70;;;31.40;69.50;;;;;;5113685;28;20260;-72
2022/06/20 14:24:47;;;;;;;5.57;2.42;;;31.30;68.70;;;;;;5113307;28;20222;-71
2022/06/20 14:27:18;;;;;;;3.15;1.83;;;31.30;68.90;;;;;;5113644;28;20219;-73
2022/06/20 14:30:02;;;;;;;3.35;2.15;;;31.40;69.10;;;;;;5120957;27;20289;-71
2022/06/20 14:32:35;;;;;;;2.70;1.45;;;31.40;69.40;;;;;;5134105;27;20277;-74
2022/06/20 14:35:21;;;;;;;5.40;1.50;;;31.40;69.50;;;;;;5134623;27;20183;-73
2022/06/20 14:37:53;;;;;;;1.30;1.20;;;31.40;69.50;;;;;;5128332;27;20277;-70
2022/06/20 14:40:25;;;;;;;3.08;2.08;;;31.40;69.00;;;;;;5120999;27;20275;-74
2022/06/20 14:42:59;;;;;;;3.05;2.10;;;31.30;69.40;;;;;;5116220;27;20199;-72
2022/06/20 14:45:34;;;;;;;1.88;1.25;;;31.30;69.50;;;;;;5133071;27;20190;-70
2022/06/20 14:48:07;;;;;;;1.73;1.40;;;31.20;69.20;;;;;;5116427;27;20211;-71
2022/06/20 14:50:42;;;;;;;1.77;1.30;;;31.30;69.20;;;;;;5113375;28;20199;-71
2022/06/20 14:53:18;;;;;;;1.98;1.58;;;31.20;69.30;;;;;;5112083;28;20335;-71
2022/06/20 14:55:52;;;;;;;5.95;2.50;;;31.20;70.60;;;;;;5116375;27;20272;-73
2022/06/20 14:58:27;;;;;;;2.60;1.60;;;31.30;69.60;;;;;;5130186;27;20200;-74
2022/06/20 15:01:03;;;;;;;3.85;1.60;;;31.20;69.20;;;;;;5133522;27;20218;-72
2022/06/20 15:03:39;;;;;;;2.53;1.40;;;31.20;69.10;;;;;;5133396;27;20235;-74
2022/06/20 15:06:13;;;;;;;1.65;1.50;;;31.20;69.40;;;;;;5133161;27;20190;-73
2022/06/20 15:08:54;;;;;;;2.97;1.30;;;31.20;68.90;;;;;;5092495;28;20227;-70
2022/06/20 15:11:26;;;;;;;3.42;1.52;;;31.20;69.30;;;;;;5092438;28;20192;-71
2022/06/20 15:13:56;;;;;;;5.20;1.30;;;31.20;69.60;;;;;;5119724;27;20305;-73
2022/06/20 15:16:28;;;;;;;3.47;1.40;;;31.20;69.50;;;;;;5132650;27;20225;-73
2022/06/20 15:19:11;;;;;;;2.20;1.20;;;31.20;69.70;;;;;;5125867;27;20200;-72
2022/06/20 15:21:46;;;;;;;4.60;1.90;;;31.20;69.90;;;;;;5112267;28;20195;-70
2022/06/20 15:24:34;;;;;;;3.85;1.90;;;31.10;69.50;;;;;;5111466;27;20226;-72
2022/06/20 15:27:06;;;;;;;1.60;1.50;;;31.10;69.50;;;;;;5110633;28;20627;-71
2022/06/20 15:29:48;;;;;;;1.55;1.38;;;31.00;69.40;;;;;;5112051;28;20217;-73
2022/06/20 15:32:32;;;;;;;2.75;1.40;;;31.00;69.30;;;;;;5110270;28;20286;-72
2022/06/20 15:35:21;;;;;;;1.75;1.50;;;31.00;69.10;;;;;;5112143;28;20191;-71
2022/06/20 15:37:50;;;;;;;4.28;1.42;;;30.90;69.30;;;;;;5112410;28;20191;-69
2022/06/20 15:40:21;;;;;;;1.73;1.35;;;30.90;69.50;;;;;;5112611;28;20289;-71
2022/06/20 15:42:54;;;;;;;2.30;1.40;;;30.90;69.30;;;;;;5112501;27;20263;-71
2022/06/20 15:45:27;;;;;;;7.93;1.30;;;30.90;69.40;;;;;;5108510;28;20654;-71
2022/06/20 15:48:02;;;;;;;2.00;1.77;;;30.90;70.00;;;;;;5091915;28;20614;-71
2022/06/20 15:50:34;;;;;;;4.25;2.47;;;30.80;70.00;;;;;;5098042;28;20551;-71
2022/06/20 15:53:14;;;;;;;4.80;2.95;;;30.90;70.20;;;;;;5112196;28;20191;-72
2022/06/20 15:56:00;;;;;;;4.63;3.15;;;30.90;71.30;;;;;;5111836;28;20277;-70
2022/06/20 15:58:47;;;;;;;2.17;1.60;;;30.80;70.30;;;;;;5113993;27;20206;-72
2022/06/20 16:01:42;;;;;;;1.63;1.40;;;30.80;71.20;;;;;;5123477;27;20205;-71
2022/06/20 16:04:17;;;;;;;2.70;1.40;;;30.80;70.30;;;;;;5104064;28;20264;-71
2022/06/20 16:06:48;;;;;;;2.60;1.30;;;30.70;70.30;;;;;;5111729;28;20269;-71
2022/06/20 16:09:41;;;;;;;7.35;1.45;;;30.70;70.60;;;;;;5111487;28;20272;-71